Time;durP1;ratioP1;P1;durP2;ratioP2;P2;SDS_P1;SDS_P2;PMS_P1;PMS_P2;Temp;Humidity;BMP_temperature;BMP_pressure;BME280_temperature;BME280_humidity;BME280_pressure;Samples;Min_cycle;Max_cycle;Signal;HPM_P1;HPM_P2
2022/09/25 00:00:35;;;;;;;4.25;3.97;;;;;;;-141.48;100.00;69781.59;5234109;28;20017;-79
2022/09/25 00:03:06;;;;;;;12.30;4.80;;;;;;;-141.48;100.00;69781.59;5221194;28;20033;-80
2022/09/25 00:05:38;;;;;;;6.68;3.58;;;;;;;-141.48;100.00;69781.59;5218931;28;20024;-79
2022/09/25 00:08:09;;;;;;;4.80;4.50;;;;;;;-141.48;100.00;69781.59;5219856;28;20039;-79
2022/09/25 00:10:49;;;;;;;6.90;4.60;;;;;;;-141.48;100.00;69781.59;5212051;28;20040;-79
2022/09/25 00:13:20;;;;;;;4.07;3.78;;;;;;;-141.48;100.00;69781.59;5226877;28;20085;-79
2022/09/25 00:15:54;;;;;;;4.90;3.90;;;;;;;-141.48;100.00;69781.59;5238076;28;20025;-78
2022/09/25 00:21:16;;;;;;;4.65;4.35;;;;;;;-141.48;100.00;69781.59;5241167;28;20091;-78
2022/09/25 00:23:47;;;;;;;4.43;4.20;;;;;;;-141.48;100.00;69781.59;5239789;28;20029;-79
2022/09/25 00:26:17;;;;;;;6.18;5.63;;;;;;;-141.48;100.00;69781.59;5218056;28;20025;-79
2022/09/25 00:28:47;;;;;;;12.82;5.40;;;;;;;-141.48;100.00;69781.59;5220153;28;20025;-79
2022/09/25 00:31:23;;;;;;;6.70;5.15;;;;;;;-141.48;100.00;69781.59;5234221;28;20032;-81
2022/09/25 00:33:58;;;;;;;8.25;4.95;;;;;;;-141.48;100.00;69781.59;5221575;28;20025;-81
2022/09/25 00:36:29;;;;;;;5.20;4.22;;;;;;;-141.48;100.00;69781.59;5203425;28;20377;-81
2022/09/25 00:39:00;;;;;;;8.25;5.63;;;;;;;-141.48;100.00;69781.59;5221459;28;20025;-82
2022/09/25 00:41:31;;;;;;;9.27;5.18;;;;;;;-141.48;100.00;69781.59;5236349;28;20047;-81
2022/09/25 00:44:03;;;;;;;4.80;4.32;;;;;;;-141.48;100.00;69781.59;5222344;28;20029;-78
2022/09/25 00:46:36;;;;;;;7.18;5.28;;;;;;;-141.48;100.00;69781.59;5241016;28;20090;-79
2022/09/25 00:49:16;;;;;;;8.00;5.03;;;;;;;-141.48;100.00;69781.59;5240637;28;20028;-80
2022/09/25 00:52:09;;;;;;;9.02;4.22;;;;;;;-141.48;100.00;69781.59;5223663;28;20029;-79
2022/09/25 00:55:02;;;;;;;4.80;4.43;;;;;;;-141.48;100.00;69781.59;5220437;28;20021;-79
2022/09/25 00:57:37;;;;;;;4.25;3.88;;;;;;;-141.48;100.00;69781.59;5220709;28;20085;-78
2022/09/25 01:00:11;;;;;;;4.45;4.00;;;;;;;-141.48;100.00;69781.59;5221928;28;20017;-78
2022/09/25 01:02:46;;;;;;;8.57;4.50;;;;;;;-141.48;100.00;69781.59;5225071;28;20028;-78
2022/09/25 01:05:19;;;;;;;6.78;5.10;;;;;;;-141.48;100.00;69781.59;5223038;28;20366;-78
2022/09/25 01:07:52;;;;;;;7.10;4.78;;;;;;;-141.48;100.00;69781.59;5226090;28;20013;-78
2022/09/25 01:10:23;;;;;;;10.93;4.03;;;;;;;-141.48;100.00;69781.59;5222847;28;20073;-79
2022/09/25 01:12:56;;;;;;;5.32;4.82;;;;;;;-141.48;100.00;69781.59;5229937;28;20053;-80
2022/09/25 01:15:56;;;;;;;6.38;4.47;;;;;;;-141.48;100.00;69781.59;5225253;28;20032;-78
2022/09/25 01:18:29;;;;;;;9.18;5.55;;;;;;;-141.48;100.00;69781.59;5212227;28;20017;-78
2022/09/25 01:21:20;;;;;;;8.40;7.18;;;;;;;-141.48;100.00;69781.59;5241507;28;20029;-79
2022/09/25 01:23:51;;;;;;;7.68;6.07;;;;;;;-141.48;100.00;69781.59;5226642;28;20092;-78
2022/09/25 01:26:59;;;;;;;8.35;7.55;;;;;;;-141.48;100.00;69781.59;5244932;28;20055;-78
2022/09/25 01:29:32;;;;;;;17.05;7.55;;;;;;;-141.48;100.00;69781.59;5229001;28;20025;-78
2022/09/25 01:32:22;;;;;;;10.43;7.97;;;;;;;-141.48;100.00;69781.59;5224044;28;20025;-78
2022/09/25 01:35:13;;;;;;;19.13;6.32;;;;;;;-141.48;100.00;69781.59;5222470;28;20029;-78
2022/09/25 01:37:58;;;;;;;13.55;6.78;;;;;;;-141.48;100.00;69781.59;5223541;28;20026;-78
2022/09/25 01:40:43;;;;;;;6.30;5.75;;;;;;;-141.48;100.00;69781.59;5213154;28;20047;-78
2022/09/25 01:43:43;;;;;;;14.60;6.65;;;;;;;-141.48;100.00;69781.59;5225556;28;20044;-78
2022/09/25 01:46:21;;;;;;;6.45;5.88;;;;;;;-141.48;100.00;69781.59;5206291;28;20036;-79
2022/09/25 01:48:59;;;;;;;8.90;5.88;;;;;;;-141.48;100.00;69781.59;5224344;28;20549;-78
2022/09/25 01:51:37;;;;;;;6.25;5.43;;;;;;;-141.48;100.00;69781.59;5221689;28;20040;-78
2022/09/25 01:54:13;;;;;;;7.38;5.38;;;;;;;-141.48;100.00;69781.59;5247146;28;20025;-78
2022/09/25 01:56:52;;;;;;;7.60;6.43;;;;;;;-141.48;100.00;69781.59;5249947;28;20028;-78
2022/09/25 01:59:34;;;;;;;7.32;5.85;;;;;;;-141.48;100.00;69781.59;5234963;28;20018;-78
2022/09/25 02:02:12;;;;;;;6.80;6.18;;;;;;;-141.48;100.00;69781.59;5206150;28;20053;-78
2022/09/25 02:04:52;;;;;;;6.50;6.00;;;;;;;-141.48;100.00;69781.59;5231511;28;20028;-77
2022/09/25 02:07:30;;;;;;;17.90;8.25;;;;;;;-141.48;100.00;69781.59;5228848;28;20045;-78
2022/09/25 02:10:20;;;;;;;6.60;5.97;;;;;;;-141.48;100.00;69781.59;5241727;28;20021;-79
2022/09/25 02:12:55;;;;;;;8.48;6.20;;;;;;;-141.48;100.00;69781.59;5242996;28;20028;-78
2022/09/25 02:15:33;;;;;;;7.53;6.88;;;;;;;-141.48;100.00;69781.59;5243655;28;20023;-79
2022/09/25 02:21:26;;;;;;;8.85;7.70;;;;;;;-141.48;100.00;69781.59;5243076;28;20465;-79
2022/09/25 02:24:08;;;;;;;;;;;;;;;-141.48;100.00;69781.59;5242463;28;20024;-79
2022/09/25 02:26:39;;;;;;;6.70;6.22;;;;;;;-141.48;100.00;69781.59;5243142;28;19943;-79
2022/09/25 02:29:11;;;;;;;11.23;6.93;;;;;;;-141.48;100.00;69781.59;5230217;28;20475;-78
2022/09/25 02:31:50;;;;;;;7.97;7.25;;;;;;;-141.48;100.00;69781.59;5220659;28;20017;-79
2022/09/25 02:34:21;;;;;;;9.13;5.53;;;;;;;-141.48;100.00;69781.59;5201471;28;20064;-79
2022/09/25 02:36:51;;;;;;;10.85;7.10;;;;;;;-141.48;100.00;69781.59;5220186;28;20022;-79
2022/09/25 02:39:25;;;;;;;7.75;7.13;;;;;;;-141.48;100.00;69781.59;5219978;28;20162;-80
2022/09/25 02:42:25;;;;;;;5.50;4.85;;;;;;;-141.48;100.00;69781.59;5220042;28;20025;-79
2022/09/25 02:45:11;;;;;;;6.78;6.38;;;;;;;-141.48;100.00;69781.59;5218594;28;20321;-79
2022/09/25 02:48:12;;;;;;;8.65;6.93;;;;;;;-141.48;100.00;69781.59;5223865;28;20034;-77
2022/09/25 02:50:51;;;;;;;6.57;6.20;;;;;;;-141.48;100.00;69781.59;5229473;28;20030;-78
2022/09/25 02:53:32;;;;;;;7.03;6.43;;;;;;;-141.48;100.00;69781.59;5237637;28;20021;-78
2022/09/25 02:56:28;;;;;;;7.32;6.63;;;;;;;-141.48;100.00;69781.59;5181757;28;20018;-81
2022/09/25 02:59:05;;;;;;;6.10;5.70;;;;;;;-141.48;100.00;69781.59;5200049;28;20300;-80
2022/09/25 03:01:40;;;;;;;6.55;6.10;;;;;;;-141.48;100.00;69781.59;5200787;28;20030;-79
2022/09/25 03:04:12;;;;;;;12.00;5.82;;;;;;;-141.48;100.00;69781.59;5199337;28;20030;-80
2022/09/25 03:06:43;;;;;;;6.07;5.70;;;;;;;-141.48;100.00;69781.59;5214621;28;20471;-80
2022/09/25 03:09:19;;;;;;;5.70;5.40;;;;;;;-141.48;100.00;69781.59;5219394;28;20029;-80
2022/09/25 03:11:51;;;;;;;7.13;6.53;;;;;;;-141.48;100.00;69781.59;5218867;28;20022;-80
2022/09/25 03:14:22;;;;;;;8.15;6.82;;;;;;;-141.48;100.00;69781.59;5217233;28;20025;-80
2022/09/25 03:16:55;;;;;;;7.72;7.03;;;;;;;-141.48;100.00;69781.59;5217793;28;20028;-80
2022/09/25 03:19:27;;;;;;;6.20;5.63;;;;;;;-141.48;100.00;69781.59;5216371;28;20021;-79
2022/09/25 03:21:58;;;;;;;8.32;7.32;;;;;;;-141.48;100.00;69781.59;5235615;28;20037;-78
2022/09/25 03:24:28;;;;;;;10.45;8.45;;;;;;;-141.48;100.00;69781.59;5236223;28;20092;-83
2022/09/25 03:26:59;;;;;;;11.45;7.40;;;;;;;-141.48;100.00;69781.59;5235223;28;20052;-78
2022/09/25 03:29:29;;;;;;;12.50;10.73;;;;;;;-141.48;100.00;69781.59;5234281;28;20059;-79
2022/09/25 03:32:00;;;;;;;10.02;8.35;;;;;;;-141.48;100.00;69781.59;5224571;28;20032;-78
2022/09/25 03:37:13;;;;;;;7.75;6.95;;;;;;;-141.48;100.00;69781.59;5201387;28;20061;-82
2022/09/25 03:39:43;;;;;;;7.93;7.22;;;;;;;-141.48;100.00;69781.59;5203510;28;20498;-82
2022/09/25 03:42:14;;;;;;;8.70;8.10;;;;;;;-141.48;100.00;69781.59;5205705;28;20465;-83
2022/09/25 03:44:44;;;;;;;8.50;7.88;;;;;;;-141.48;100.00;69781.59;5203488;28;20056;-84
2022/09/25 03:47:15;;;;;;;8.90;8.25;;;;;;;-141.48;100.00;69781.59;5205536;28;20032;-83
2022/09/25 03:49:45;;;;;;;8.35;7.78;;;;;;;-141.48;100.00;69781.59;5205990;28;20091;-83
2022/09/25 03:52:16;;;;;;;11.60;7.60;;;;;;;-141.48;100.00;69781.59;5205826;28;20029;-83
2022/09/25 03:54:46;;;;;;;9.05;8.35;;;;;;;-141.48;100.00;69781.59;5206771;28;20089;-82
2022/09/25 03:57:16;;;;;;;10.98;10.02;;;;;;;-141.48;100.00;69781.59;5222387;28;20033;-83
2022/09/25 03:59:47;;;;;;;9.88;8.95;;;;;;;-141.48;100.00;69781.59;5227089;28;20074;-82
2022/09/25 04:02:17;;;;;;;14.23;9.63;;;;;;;-141.48;100.00;69781.59;5226558;28;20130;-83
2022/09/25 04:04:47;;;;;;;10.90;9.55;;;;;;;-141.48;100.00;69781.59;5224738;28;20132;-83
2022/09/25 04:07:18;;;;;;;15.02;8.32;;;;;;;-141.48;100.00;69781.59;5226613;28;20078;-84
2022/09/25 04:09:48;;;;;;;9.00;7.47;;;;;;;-141.48;100.00;69781.59;5226496;28;20029;-83
2022/09/25 04:12:20;;;;;;;11.60;10.38;;;;;;;-141.48;100.00;69781.59;5227536;28;20097;-83
2022/09/25 04:14:50;;;;;;;13.32;8.65;;;;;;;-141.48;100.00;69781.59;5225371;28;20127;-81
2022/09/25 04:17:20;;;;;;;9.23;8.32;;;;;;;-141.48;100.00;69781.59;5226007;28;20033;-83
2022/09/25 04:19:51;;;;;;;9.00;8.32;;;;;;;-141.48;100.00;69781.59;5226572;28;20174;-81
2022/09/25 04:22:22;;;;;;;12.77;8.07;;;;;;;-141.48;100.00;69781.59;5227310;28;20079;-82
2022/09/25 04:24:53;;;;;;;17.55;9.95;;;;;;;-141.48;100.00;69781.59;5225577;28;20635;-82
2022/09/25 04:27:25;;;;;;;12.77;9.93;;;;;;;-141.48;100.00;69781.59;5227146;28;20029;-80
2022/09/25 04:29:56;;;;;;;8.63;8.02;;;;;;;-141.48;100.00;69781.59;5227846;28;20013;-80
2022/09/25 04:35:15;;;;;;;21.33;10.15;;;;;;;-141.48;100.00;69781.59;5226444;28;20065;-82
2022/09/25 04:37:45;;;;;;;10.35;9.27;;;;;;;-141.48;100.00;69781.59;5226009;28;20048;-82
2022/09/25 04:40:16;;;;;;;12.07;9.95;;;;;;;-141.48;100.00;69781.59;5227654;28;20028;-81
2022/09/25 04:42:46;;;;;;;15.93;10.18;;;;;;;-141.48;100.00;69781.59;5225854;28;20100;-80
2022/09/25 04:45:16;;;;;;;10.45;9.30;;;;;;;-141.48;100.00;69781.59;5226120;28;20063;-81
2022/09/25 04:47:47;;;;;;;11.00;10.30;;;;;;;-141.48;100.00;69781.59;5227988;28;20025;-82
2022/09/25 04:50:17;;;;;;;10.50;9.70;;;;;;;-141.48;100.00;69781.59;5229206;28;20021;-81
2022/09/25 04:52:50;;;;;;;12.35;10.73;;;;;;;-141.48;100.00;69781.59;5229119;28;20068;-82
2022/09/25 04:55:23;;;;;;;11.38;10.27;;;;;;;-141.48;100.00;69781.59;5226190;28;20096;-81
2022/09/25 04:57:58;;;;;;;11.93;10.07;;;;;;;-141.48;100.00;69781.59;5232304;28;20414;-80
2022/09/25 05:00:31;;;;;;;16.67;12.00;;;;;;;-141.48;100.00;69781.59;5232071;28;20017;-81
2022/09/25 05:03:02;;;;;;;11.60;10.60;;;;;;;-141.48;100.00;69781.59;5233757;28;20171;-81
2022/09/25 05:05:34;;;;;;;10.85;9.57;;;;;;;-141.48;100.00;69781.59;5234875;28;20514;-82
2022/09/25 05:08:04;;;;;;;9.00;8.25;;;;;;;-141.48;100.00;69781.59;5235725;28;20128;-81
2022/09/25 05:10:35;;;;;;;13.25;10.55;;;;;;;-141.48;100.00;69781.59;5235167;28;20035;-82
2022/09/25 05:13:05;;;;;;;9.35;8.77;;;;;;;-141.48;100.00;69781.59;5236828;28;20048;-83
2022/09/25 05:15:36;;;;;;;12.35;11.10;;;;;;;-141.48;100.00;69781.59;5235054;28;20037;-82
2022/09/25 05:18:10;;;;;;;17.80;12.70;;;;;;;-141.48;100.00;69781.59;5236279;28;20082;-84
2022/09/25 05:20:41;;;;;;;10.32;9.55;;;;;;;-141.48;100.00;69781.59;5235824;28;20021;-84
2022/09/25 05:23:11;;;;;;;9.32;8.40;;;;;;;-141.48;100.00;69781.59;5235490;28;20043;-85
2022/09/25 05:25:42;;;;;;;10.30;9.52;;;;;;;-141.48;100.00;69781.59;5235428;28;20017;-81
2022/09/25 05:28:12;;;;;;;10.48;9.55;;;;;;;-141.48;100.00;69781.59;5236043;28;20017;-82
2022/09/25 05:30:42;;;;;;;9.68;8.80;;;;;;;-141.48;100.00;69781.59;5235747;28;20056;-83
2022/09/25 05:33:13;;;;;;;9.85;8.80;;;;;;;-141.48;100.00;69781.59;5235460;28;20033;-82
2022/09/25 05:35:43;;;;;;;9.98;9.32;;;;;;;-141.48;100.00;69781.59;5235424;28;20124;-83
2022/09/25 05:38:14;;;;;;;19.05;7.90;;;;;;;-141.48;100.00;69781.59;5235585;28;20043;-82
2022/09/25 05:40:50;;;;;;;6.72;6.22;;;;;;;-141.48;100.00;69781.59;5236229;28;20016;-83
2022/09/25 05:43:20;;;;;;;9.13;8.52;;;;;;;-141.48;100.00;69781.59;5234861;28;20108;-83
2022/09/25 05:45:54;;;;;;;9.35;8.75;;;;;;;-141.48;100.00;69781.59;5232638;28;20166;-83
2022/09/25 05:48:25;;;;;;;9.82;9.02;;;;;;;-141.48;100.00;69781.59;5220998;28;20020;-83
2022/09/25 05:50:56;;;;;;;10.57;9.43;;;;;;;-141.48;100.00;69781.59;5236169;28;20028;-82
2022/09/25 05:53:27;;;;;;;16.33;10.90;;;;;;;-141.48;100.00;69781.59;5233159;28;20482;-81
2022/09/25 05:56:00;;;;;;;10.20;9.32;;;;;;;-141.48;100.00;69781.59;5235503;28;20075;-82
2022/09/25 05:58:33;;;;;;;9.27;8.52;;;;;;;-141.48;100.00;69781.59;5234513;28;20096;-80
2022/09/25 06:01:05;;;;;;;8.95;8.00;;;;;;;-141.48;100.00;69781.59;5230889;28;20036;-82
2022/09/25 06:03:35;;;;;;;8.27;7.78;;;;;;;-141.48;100.00;69781.59;5230605;28;20031;-84
2022/09/25 06:06:06;;;;;;;9.30;8.18;;;;;;;-141.48;100.00;69781.59;5234112;28;20076;-83
2022/09/25 06:08:36;;;;;;;9.75;9.05;;;;;;;-141.48;100.00;69781.59;5235133;28;20023;-81
2022/09/25 06:11:07;;;;;;;9.82;9.13;;;;;;;-141.48;100.00;69781.59;5235465;28;20029;-83
2022/09/25 06:13:37;;;;;;;11.18;10.38;;;;;;;-141.48;100.00;69781.59;5232553;28;20044;-82
2022/09/25 06:16:13;;;;;;;12.10;11.27;;;;;;;-141.48;100.00;69781.59;5234779;28;20162;-82
2022/09/25 06:18:46;;;;;;;9.48;8.77;;;;;;;-141.48;100.00;69781.59;5233817;28;20028;-82
2022/09/25 06:21:16;;;;;;;8.85;8.15;;;;;;;-141.48;100.00;69781.59;5221391;28;20143;-82
2022/09/25 06:23:47;;;;;;;11.82;9.68;;;;;;;-141.48;100.00;69781.59;5202916;28;20452;-84
2022/09/25 06:26:18;;;;;;;10.57;9.68;;;;;;;-141.48;100.00;69781.59;5194907;28;20033;-83
2022/09/25 06:28:48;;;;;;;10.30;9.50;;;;;;;-141.48;100.00;69781.59;5193550;28;20029;-83
2022/09/25 06:31:19;;;;;;;11.60;10.55;;;;;;;-141.48;100.00;69781.59;5198772;28;20028;-84
2022/09/25 06:33:50;;;;;;;11.10;10.32;;;;;;;-141.48;100.00;69781.59;5209133;28;20033;-83
2022/09/25 06:36:21;;;;;;;17.85;10.18;;;;;;;-141.48;100.00;69781.59;5209596;28;20112;-85
2022/09/25 06:38:54;;;;;;;18.90;11.57;;;;;;;-141.48;100.00;69781.59;5209581;28;20018;-83
2022/09/25 06:41:25;;;;;;;10.10;9.18;;;;;;;-141.48;100.00;69781.59;5211464;28;20065;-82
2022/09/25 06:43:55;;;;;;;11.90;10.18;;;;;;;-141.48;100.00;69781.59;5223262;28;20049;-83
2022/09/25 06:46:26;;;;;;;11.23;10.52;;;;;;;-141.48;100.00;69781.59;5232362;28;20033;-83
2022/09/25 06:48:56;;;;;;;13.45;12.05;;;;;;;-141.48;100.00;69781.59;5230616;28;20119;-83
2022/09/25 06:51:31;;;;;;;12.25;11.00;;;;;;;-141.48;100.00;69781.59;5229522;28;20052;-83
2022/09/25 06:54:01;;;;;;;13.40;12.43;;;;;;;-141.48;100.00;69781.59;5234925;28;20092;-82
2022/09/25 06:56:32;;;;;;;22.35;14.02;;;;;;;-141.48;100.00;69781.59;5237794;28;20024;-83
2022/09/25 06:59:03;;;;;;;10.75;9.93;;;;;;;-141.48;100.00;69781.59;5229363;28;20196;-82
2022/09/25 07:01:34;;;;;;;11.50;10.35;;;;;;;-141.48;100.00;69781.59;5230373;28;20033;-82
2022/09/25 07:04:04;;;;;;;11.10;10.30;;;;;;;-141.48;100.00;69781.59;5229784;28;20083;-83
2022/09/25 07:06:36;;;;;;;15.10;13.82;;;;;;;-141.48;100.00;69781.59;5229689;28;20471;-83
2022/09/25 07:09:06;;;;;;;13.63;12.52;;;;;;;-141.48;100.00;69781.59;5232366;28;20032;-81
2022/09/25 07:11:36;;;;;;;12.00;10.90;;;;;;;-141.48;100.00;69781.59;5231777;28;20020;-82
2022/09/25 07:14:08;;;;;;;11.85;11.02;;;;;;;-141.48;100.00;69781.59;5228913;28;20025;-82
2022/09/25 07:16:39;;;;;;;12.30;11.30;;;;;;;-141.48;100.00;69781.59;5230073;28;20105;-81
2022/09/25 07:19:09;;;;;;;11.52;10.32;;;;;;;-141.48;100.00;69781.59;5229510;28;20040;-83
2022/09/25 07:21:40;;;;;;;13.20;12.13;;;;;;;-141.48;100.00;69781.59;5227923;28;20028;-82
2022/09/25 07:24:11;;;;;;;11.88;10.93;;;;;;;-141.48;100.00;69781.59;5228752;28;20029;-84
2022/09/25 07:26:41;;;;;;;24.67;10.80;;;;;;;-141.48;100.00;69781.59;5228658;28;20025;-84
2022/09/25 07:29:11;;;;;;;13.82;12.35;;;;;;;-141.48;100.00;69781.59;5229116;28;20439;-82
2022/09/25 07:31:42;;;;;;;11.50;10.40;;;;;;;-141.48;100.00;69781.59;5222744;28;20476;-84
2022/09/25 07:34:12;;;;;;;9.73;9.00;;;;;;;-141.48;100.00;69781.59;5187220;28;20041;-84
2022/09/25 07:36:43;;;;;;;8.52;7.82;;;;;;;-141.48;100.00;69781.59;5188379;28;20049;-83
2022/09/25 07:39:13;;;;;;;13.85;9.10;;;;;;;-141.48;100.00;69781.59;5188423;28;20060;-84
2022/09/25 07:41:44;;;;;;;17.02;8.27;;;;;;;-141.48;100.00;69781.59;5188889;28;20480;-84
2022/09/25 07:44:14;;;;;;;9.73;8.88;;;;;;;-141.48;100.00;69781.59;5187519;28;20049;-82
2022/09/25 07:46:45;;;;;;;8.93;8.07;;;;;;;-141.48;100.00;69781.59;5189667;28;20303;-82
2022/09/25 07:49:15;;;;;;;10.07;8.95;;;;;;;-141.48;100.00;69781.59;5190879;28;20091;-84
2022/09/25 07:51:46;;;;;;;10.82;9.73;;;;;;;-141.48;100.00;69781.59;5190076;28;20029;-83
2022/09/25 07:54:16;;;;;;;9.60;8.70;;;;;;;-141.48;100.00;69781.59;5189617;28;20438;-83
2022/09/25 07:56:46;;;;;;;10.05;7.47;;;;;;;-141.48;100.00;69781.59;5201139;28;20021;-83
2022/09/25 07:59:17;;;;;;;9.60;8.48;;;;;;;-141.48;100.00;69781.59;5208098;28;20027;-83
2022/09/25 08:01:47;;;;;;;20.35;8.55;;;;;;;-141.48;100.00;69781.59;5207160;28;20052;-81
2022/09/25 08:04:17;;;;;;;7.82;7.22;;;;;;;-141.48;100.00;69781.59;5205274;28;20029;-82
2022/09/25 08:06:48;;;;;;;8.95;8.10;;;;;;;-141.48;100.00;69781.59;5207743;28;20144;-83
2022/09/25 08:09:18;;;;;;;8.77;6.53;;;;;;;-141.48;100.00;69781.59;5206020;28;20033;-82
2022/09/25 08:11:48;;;;;;;7.28;6.68;;;;;;;-141.48;100.00;69781.59;5206031;28;20087;-84
2022/09/25 08:14:19;;;;;;;8.05;7.35;;;;;;;-141.48;100.00;69781.59;5206452;28;20026;-82
2022/09/25 08:16:51;;;;;;;6.63;6.13;;;;;;;-141.48;100.00;69781.59;5207546;28;20018;-83
2022/09/25 08:19:22;;;;;;;7.45;7.00;;;;;;;-141.48;100.00;69781.59;5206338;28;20029;-83
2022/09/25 08:21:52;;;;;;;9.95;8.15;;;;;;;-141.48;100.00;69781.59;5207664;28;20029;-81
2022/09/25 08:24:22;;;;;;;8.27;7.13;;;;;;;-141.48;100.00;69781.59;5207115;28;20051;-82
2022/09/25 08:26:53;;;;;;;9.65;7.60;;;;;;;-141.48;100.00;69781.59;5206959;28;20116;-83
2022/09/25 08:29:23;;;;;;;6.88;6.00;;;;;;;-141.48;100.00;69781.59;5204798;28;20065;-82
2022/09/25 08:31:54;;;;;;;8.57;7.63;;;;;;;-141.48;100.00;69781.59;5206132;28;20229;-83
2022/09/25 08:34:24;;;;;;;5.63;5.30;;;;;;;-141.48;100.00;69781.59;5205661;28;20070;-83
2022/09/25 08:36:54;;;;;;;4.93;4.63;;;;;;;-141.48;100.00;69781.59;5206262;28;20463;-83
2022/09/25 08:39:25;;;;;;;6.65;6.05;;;;;;;-141.48;100.00;69781.59;5206738;28;20093;-83
2022/09/25 08:41:55;;;;;;;5.80;5.40;;;;;;;-141.48;100.00;69781.59;5201527;28;20045;-81
2022/09/25 08:44:36;;;;;;;6.05;5.55;;;;;;;-141.48;100.00;69781.59;5206635;28;20021;-83
2022/09/25 08:50:20;;;;;;;5.93;5.43;;;;;;;-141.48;100.00;69781.59;5205753;28;20558;-83
2022/09/25 08:53:04;;;;;;;5.30;4.80;;;;;;;-141.48;100.00;69781.59;5207825;28;20029;-83
2022/09/25 08:58:32;;;;;;;6.03;3.92;;;;;;;-141.48;100.00;69781.59;5210229;28;20048;-83
2022/09/25 09:01:08;;;;;;;5.22;4.20;;;;;;;-141.48;100.00;69781.59;5207654;28;20487;-81
2022/09/25 09:03:53;;;;;;;3.55;3.35;;;;;;;-141.48;100.00;69781.59;5204140;28;20047;-82
2022/09/25 09:06:26;;;;;;;4.93;4.47;;;;;;;-141.48;100.00;69781.59;5205967;28;20156;-84
2022/09/25 09:09:04;;;;;;;6.10;3.20;;;;;;;-141.48;100.00;69781.59;5221667;28;20033;-81
2022/09/25 09:12:02;;;;;;;3.92;3.63;;;;;;;-141.48;100.00;69781.59;5226579;28;20025;-82
2022/09/25 09:14:46;;;;;;;6.63;4.68;;;;;;;-141.48;100.00;69781.59;5191173;28;20043;-83
2022/09/25 09:17:19;;;;;;;2.92;2.72;;;;;;;-141.48;100.00;69781.59;5193190;28;20084;-83
2022/09/25 09:19:55;;;;;;;4.90;3.80;;;;;;;-141.48;100.00;69781.59;5186954;28;20034;-83
2022/09/25 09:22:35;;;;;;;3.72;3.42;;;;;;;-141.48;100.00;69781.59;5187761;28;20040;-80
2022/09/25 09:25:33;;;;;;;3.67;2.40;;;;;;;-141.48;100.00;69781.59;5185143;28;20036;-82
2022/09/25 09:28:45;;;;;;;6.78;3.65;;;;;;;-141.48;100.00;69781.59;5187556;28;20104;-85
2022/09/25 09:31:15;;;;;;;4.72;2.78;;;;;;;-141.48;100.00;69781.59;5186852;28;20038;-84
2022/09/25 09:34:22;;;;;;;4.95;2.28;;;;;;;-141.48;100.00;69781.59;5186558;28;20056;-82
2022/09/25 09:37:03;;;;;;;2.72;2.53;;;;;;;-141.48;100.00;69781.59;5186437;28;20147;-83
2022/09/25 09:39:44;;;;;;;3.15;2.60;;;;;;;-141.48;100.00;69781.59;5194632;28;20084;-83
2022/09/25 09:43:03;;;;;;;2.40;1.40;;;;;;;-141.48;100.00;69781.59;5212610;28;20025;-84
2022/09/25 09:45:52;;;;;;;4.10;3.60;;;;;;;-141.48;100.00;69781.59;5208908;28;20049;-83
2022/09/25 09:48:52;;;;;;;3.55;3.30;;;;;;;-141.48;100.00;69781.59;5232174;28;20039;-82
2022/09/25 09:51:42;;;;;;;;;;;;;;;-141.48;100.00;69781.59;5233651;28;20036;-83
2022/09/25 09:54:20;;;;;;;2.33;2.13;;;;;;;-141.48;100.00;69781.59;5229731;28;19962;-84
2022/09/25 09:56:54;;;;;;;2.40;2.30;;;;;;;-141.48;100.00;69781.59;5229557;28;20044;-84
2022/09/25 09:59:39;;;;;;;11.48;2.33;;;;;;;-141.48;100.00;69781.59;5228595;28;20108;-84
2022/09/25 10:02:40;;;;;;;1.63;1.38;;;;;;;-141.48;100.00;69781.59;5229657;28;20025;-82
2022/09/25 10:05:22;;;;;;;2.38;1.70;;;;;;;-141.48;100.00;69781.59;5228365;28;20044;-82
2022/09/25 10:07:53;;;;;;;2.22;2.13;;;;;;;-141.48;100.00;69781.59;5231045;28;20108;-83
2022/09/25 10:10:39;;;;;;;2.13;2.03;;;;;;;-141.48;100.00;69781.59;5213690;28;20507;-83
2022/09/25 10:13:33;;;;;;;3.13;2.22;;;;;;;-141.48;100.00;69781.59;5222239;28;20025;-82
2022/09/25 10:16:12;;;;;;;2.63;2.53;;;;;;;-141.48;100.00;69781.59;5226169;28;20033;-81
2022/09/25 10:18:48;;;;;;;3.55;3.33;;;;;;;-141.48;100.00;69781.59;5222078;28;20319;-83
2022/09/25 10:21:22;;;;;;;8.27;3.30;;;;;;;-141.48;100.00;69781.59;5264022;22;20055;-80
2022/09/25 10:23:57;;;;;;;2.50;2.40;;;;;;;-141.48;100.00;69781.59;5239555;28;20112;-80
2022/09/25 10:26:39;;;;;;;7.10;4.00;;;;;;;-141.48;100.00;69781.59;5224987;28;20021;-81
2022/09/25 10:29:25;;;;;;;3.38;2.72;;;;;;;-141.48;100.00;69781.59;5244509;28;20453;-81
2022/09/25 10:32:02;;;;;;;4.22;2.58;;;;;;;-141.48;100.00;69781.59;5244115;28;20051;-81
2022/09/25 10:34:34;;;;;;;2.00;1.90;;;;;;;-141.48;100.00;69781.59;5243585;28;20029;-81
2022/09/25 10:37:20;;;;;;;2.17;2.10;;;;;;;-141.48;100.00;69781.59;5224794;28;20017;-80
2022/09/25 10:40:25;;;;;;;6.50;3.63;;;;;;;-141.48;100.00;69781.59;5243228;28;20028;-80
2022/09/25 10:43:19;;;;;;;8.25;2.55;;;;;;;-141.48;100.00;69781.59;5224886;28;20091;-81
2022/09/25 10:46:08;;;;;;;2.20;2.03;;;;;;;-141.48;100.00;69781.59;5244444;28;20206;-81
2022/09/25 10:51:31;;;;;;;2.65;2.55;;;;;;;-141.48;100.00;69781.59;5243198;28;20044;-80
2022/09/25 10:54:14;;;;;;;2.60;2.40;;;;;;;-141.48;100.00;69781.59;5243035;28;20040;-82
2022/09/25 10:56:44;;;;;;;3.30;1.85;;;;;;;-141.48;100.00;69781.59;5244254;28;20028;-81
2022/09/25 10:59:19;;;;;;;2.28;1.95;;;;;;;-141.48;100.00;69781.59;5222736;28;20483;-82
2022/09/25 11:01:53;;;;;;;2.60;2.50;;;;;;;-141.48;100.00;69781.59;5241446;28;20020;-82
2022/09/25 11:04:28;;;;;;;3.13;2.53;;;;;;;-141.48;100.00;69781.59;5223070;28;20056;-82
2022/09/25 11:07:03;;;;;;;2.58;2.42;;;;;;;-141.48;100.00;69781.59;5244136;28;20021;-82
2022/09/25 11:09:41;;;;;;;3.60;1.20;;;;;;;-141.48;100.00;69781.59;5227097;28;20024;-81
2022/09/25 11:12:18;;;;;;;4.20;2.90;;;;;;;-141.48;100.00;69781.59;5242705;28;20040;-81
2022/09/25 11:15:01;;;;;;;1.23;1.20;;;;;;;-141.48;100.00;69781.59;5242245;28;20044;-82
2022/09/25 11:17:40;;;;;;;4.03;1.65;;;;;;;-141.48;100.00;69781.59;5240493;28;20021;-82
2022/09/25 11:20:15;;;;;;;;;;;;;;;-141.48;100.00;69781.59;5222430;28;20039;-82
2022/09/25 11:23:36;;;;;;;3.22;1.73;;;;;;;-141.48;100.00;69781.59;5258662;28;19970;-82
2022/09/25 11:26:21;;;;;;;2.03;1.92;;;;;;;-141.48;100.00;69781.59;5198087;28;20026;-82
2022/09/25 11:29:03;;;;;;;1.88;1.77;;;;;;;-141.48;100.00;69781.59;5199213;28;20022;-80
2022/09/25 11:31:41;;;;;;;3.88;2.53;;;;;;;-141.48;100.00;69781.59;5239634;28;20052;-82
2022/09/25 11:34:14;;;;;;;2.70;1.27;;;;;;;-141.48;100.00;69781.59;5264973;28;20035;-83
2022/09/25 11:37:13;;;;;;;1.67;1.25;;;;;;;-141.48;100.00;69781.59;5265738;28;20565;-82
2022/09/25 11:43:05;;;;;;;2.50;2.30;;;;;;;-141.48;100.00;69781.59;5264349;28;20039;-80
2022/09/25 11:45:43;;;;;;;1.15;1.15;;;;;;;-141.48;100.00;69781.59;5266682;28;20021;-81
2022/09/25 11:48:25;;;;;;;2.05;1.90;;;;;;;-141.48;100.00;69781.59;5249156;28;20024;-81
2022/09/25 11:51:21;;;;;;;5.68;2.45;;;;;;;-141.48;100.00;69781.59;5248493;28;20256;-82
2022/09/25 11:54:01;;;;;;;1.95;1.80;;;;;;;-141.48;100.00;69781.59;5262055;28;20044;-80
2022/09/25 11:56:56;;;;;;;2.35;2.25;;;;;;;-141.48;100.00;69781.59;5262807;28;20039;-80
2022/09/25 12:00:04;;;;;;;1.33;1.30;;;;;;;-141.48;100.00;69781.59;5262257;28;20020;-82
2022/09/25 12:02:55;;;;;;;1.85;1.52;;;;;;;-141.48;100.00;69781.59;5192498;28;20086;-81
2022/09/25 12:05:50;;;;;;;4.25;2.00;;;;;;;-141.48;100.00;69781.59;5242884;28;20043;-80
2022/09/25 12:08:58;;;;;;;6.72;2.67;;;;;;;-141.48;100.00;69781.59;5263214;28;20406;-80
2022/09/25 12:12:04;;;;;;;8.27;1.70;;;;;;;-141.48;100.00;69781.59;5245896;28;20059;-81